Terminal Aerodrome Forecast
Issued by NWS Atlanta, GA

Home | Current Version | Previous Version | Text Only | Print | Product List | Glossary On
Versions: 1 2 3 4 5 6 7 8 9 10 11 12 13 14
000
FTUS42 KFFC 302300
TAFMCN
TAF
KMCN 302320Z 3100/3124 VRB03KT P6SM VCSH SCT050 BKN100
      TEMPO 3100/3102 VRB15G25KT 6SM TSRA BKN045CB
     FM310300 00000KT P6SM FEW050 SCT100
     FM311000 00000KT 3SM BR SCT010 SCT150
     FM311400 23003KT P6SM SCT020 SCT150
     FM311800 23005KT P6SM SCT050 SCT150=

USA.gov is the U.S. government's official web portal to all federal, state and local government web resources and services.